Map

Track Data

SID SEASON NUMBER BASIN SUBBASIN NAME ISO_TIME NATURE LAT LON WMO_WIND WMO_PRES WMO_AGENCY TRACK_TYPE DIST2LAND LANDFALL IFLAG USA_AGENCY USA_ATCF_ID USA_LAT USA_LON USA_RECORD USA_STATUS USA_WIND USA_PRES USA_SSHS USA_R34_NE USA_R34_SE USA_R34_SW USA_R34_NW USA_R50_NE USA_R50_SE USA_R50_SW USA_R50_NW USA_R64_NE USA_R64_SE USA_R64_SW USA_R64_NW USA_POCI USA_ROCI USA_RMW USA_EYE TOKYO_LAT TOKYO_LON TOKYO_GRADE TOKYO_WIND TOKYO_PRES TOKYO_R50_DIR TOKYO_R50_LONG TOKYO_R50_SHORT TOKYO_R30_DIR TOKYO_R30_LONG TOKYO_R30_SHORT TOKYO_LAND CMA_LAT CMA_LON CMA_CAT CMA_WIND CMA_PRES HKO_LAT HKO_LON HKO_CAT HKO_WIND HKO_PRES NEWDELHI_LAT NEWDELHI_LON NEWDELHI_GRADE NEWDELHI_WIND NEWDELHI_PRES NEWDELHI_CI NEWDELHI_DP NEWDELHI_POCI REUNION_LAT REUNION_LON REUNION_TYPE REUNION_WIND REUNION_PRES REUNION_TNUM REUNION_CI REUNION_RMW REUNION_R34_NE REUNION_R34_SE REUNION_R34_SW REUNION_R34_NW REUNION_R50_NE REUNION_R50_SE REUNION_R50_SW REUNION_R50_NW REUNION_R64_NE REUNION_R64_SE REUNION_R64_SW REUNION_R64_NW BOM_LAT BOM_LON BOM_TYPE BOM_WIND BOM_PRES BOM_TNUM BOM_CI BOM_RMW BOM_R34_NE BOM_R34_SE BOM_R34_SW BOM_R34_NW BOM_R50_NE BOM_R50_SE BOM_R50_SW BOM_R50_NW BOM_R64_NE BOM_R64_SE BOM_R64_SW BOM_R64_NW BOM_ROCI BOM_POCI BOM_EYE BOM_POS_METHOD BOM_PRES_METHOD NADI_LAT NADI_LON NADI_CAT NADI_WIND NADI_PRES WELLINGTON_LAT WELLINGTON_LON WELLINGTON_WIND WELLINGTON_PRES DS824_LAT DS824_LON DS824_STAGE DS824_WIND DS824_PRES TD9636_LAT TD9636_LON TD9636_STAGE TD9636_WIND TD9636_PRES TD9635_LAT TD9635_LON TD9635_WIND TD9635_PRES TD9635_ROCI NEUMANN_LAT NEUMANN_LON NEUMANN_CLASS NEUMANN_WIND NEUMANN_PRES MLC_LAT MLC_LON MLC_CLASS MLC_WIND MLC_PRES USA_GUST BOM_GUST BOM_GUST_PER REUNION_GUST REUNION_GUST_PER USA_SEAHGT USA_SEARAD_NE USA_SEARAD_SE USA_SEARAD_SW USA_SEARAD_NW STORM_SPEED STORM_DIR
2023099S11128 2023 14 SI WA ILSA 2023-04-08 18:00:00 NR -11.3000 128.200 PROVISIONAL 208 208 O_____________ tcvitals SI182023 -11.3000 128.200 35 1000 0 1007 180 35 12 236
2023099S11128 2023 14 SI WA ILSA 2023-04-08 21:00:00 NR -11.6226 127.713 PROVISIONAL 254 213 P_____________ SI182023 -11.6226 127.713 37 999 0 1007 190 40 12 239
2023099S11128 2023 14 SI WA ILSA 2023-04-09 00:00:00 NR -11.9000 127.200 PROVISIONAL 213 190 O_____________ tcvitals SI182023 -11.9000 127.200 39 999 0 65 85 70 65 1007 200 45 12 245
2023099S11128 2023 14 SI WA ILSA 2023-04-09 03:00:00 NR -12.1075 126.650 PROVISIONAL 193 184 P_____________ SI182023 -12.1075 126.650 42 998 0 57 82 65 40 1006 200 45 11 250
2023099S11128 2023 14 SI WA ILSA 2023-04-09 06:00:00 NR -12.3000 126.100 PROVISIONAL 189 171 O_____________ tcvitals SI182023 -12.3000 126.100 45 998 0 50 80 60 15 1006 200 45 11 247
2023099S11128 2023 14 SI WA ILSA 2023-04-09 09:00:00 NR -12.5424 125.585 PROVISIONAL 176 164 P_____________ SI182023 -12.5424 125.585 45 997 0 57 75 65 35 1006 200 45 11 243
2023099S11128 2023 14 SI WA ILSA 2023-04-09 12:00:00 NR -12.8000 125.100 PROVISIONAL 172 165 O_____________ tcvitals SI182023 -12.8000 125.100 45 997 0 65 70 70 55 1006 200 45 11 241
2023099S11128 2023 14 SI WA ILSA 2023-04-09 15:00:00 NR -13.0649 124.635 PROVISIONAL 172 171 P_____________ SI182023 -13.0649 124.635 45 997 0 65 82 80 55 1006 200 45 10 240
2023099S11128 2023 14 SI WA ILSA 2023-04-09 18:00:00 NR -13.3000 124.200 PROVISIONAL 181 179 O_____________ tcvitals SI182023 -13.3000 124.200 45 997 0 65 95 90 55 1006 200 45 10 241
2023099S11128 2023 14 SI WA ILSA 2023-04-09 21:00:00 NR -13.5250 123.770 PROVISIONAL 194 194 P_____________ SI182023 -13.5250 123.770 48 996 0 67 100 97 62 1007 195 37 8 249
2023099S11128 2023 14 SI WA ILSA 2023-04-10 00:00:00 NR -13.6000 123.400 PROVISIONAL 224 224 O_____________ tcvitals SI182023 -13.6000 123.400 51 995 0 70 105 105 70 1008 190 30 6 286
2023099S11128 2023 14 SI WA ILSA 2023-04-10 03:00:00 NR -13.3424 123.135 PROVISIONAL 269 269 P_____________ SI182023 -13.3424 123.135 48 996 0 67 102 97 67 1008 190 30 7 316
2023099S11128 2023 14 SI WA ILSA 2023-04-10 06:00:00 NR -13.1000 122.900 PROVISIONAL 299 299 O_____________ tcvitals SI182023 -13.1000 122.900 45 998 0 65 100 90 65 1008 190 30 6 280
2023099S11128 2023 14 SI WA ILSA 2023-04-10 09:00:00 NR -13.2476 122.578 PROVISIONAL 321 316 P_____________ SI182023 -13.2476 122.578 45 997 0 60 90 85 70 1007 190 30 7 236
2023099S11128 2023 14 SI WA ILSA 2023-04-10 12:00:00 NR -13.5000 122.300 PROVISIONAL 326 318 O_____________ tcvitals SI182023 -13.5000 122.300 45 997 0 55 80 80 75 1007 190 30 5 225
2023099S11128 2023 14 SI WA ILSA 2023-04-10 15:00:00 NR -13.6074 122.207 PROVISIONAL 325 318 P_____________ SI182023 -13.6074 122.207 48 996 0 55 77 80 72 1007 185 25 3 224
2023099S11128 2023 14 SI WA ILSA 2023-04-10 18:00:00 NR -13.7000 122.100 PROVISIONAL 324 317 O_____________ tcvitals SI182023 -13.7000 122.100 51 995 0 55 75 80 70 1007 180 20 5 244
2023099S11128 2023 14 SI WA ILSA 2023-04-10 21:00:00 NR -13.8427 121.705 PROVISIONAL 328 318 P_____________ SI182023 -13.8427 121.705 51 993 0 55 75 80 70 1006 153 20 7 246
2023099S11128 2023 14 SI WA ILSA 2023-04-11 00:00:00 NR -14.0000 121.400 PROVISIONAL 322 302 O_____________ tcvitals SI182023 -14.0000 121.400 51 992 0 55 75 80 70 1006 126 20 3 204
2023099S11128 2023 14 SI WA ILSA 2023-04-11 03:00:00 NR -14.1276 121.577 PROVISIONAL 302 273 P_____________ SI182023 -14.1276 121.577 52 991 0 67 82 75 67 1006 126 20 5 128
2023099S11128 2023 14 SI WA ILSA 2023-04-11 06:00:00 NR -14.3000 121.800 PROVISIONAL 273 253 O_____________ tcvitals SI182023 -14.3000 121.800 54 990 0 80 90 70 65 1006 126 20 5 165
2023099S11128 2023 14 SI WA ILSA 2023-04-11 09:00:00 NR -14.5624 121.697 PROVISIONAL 248 240 P_____________ SI182023 -14.5624 121.697 57 989 0 72 72 60 62 1006 126 20 7 213
2023099S11128 2023 14 SI WA ILSA 2023-04-11 12:00:00 NR -14.9000 121.400 PROVISIONAL 240 239 O_____________ tcvitals SI182023 -14.9000 121.400 60 988 0 65 55 50 60 1006 126 20 11 222
2023099S11128 2023 14 SI WA ILSA 2023-04-11 15:00:00 NR -15.3452 120.966 PROVISIONAL 239 239 P_____________ SI182023 -15.3452 120.966 70 981 1 65 60 55 60 1005 158 17 12 227
2023099S11128 2023 14 SI WA ILSA 2023-04-11 18:00:00 NR -15.7000 120.500 PROVISIONAL 247 247 O_____________ tcvitals SI182023 -15.7000 120.500 80 975 1 65 65 60 60 1005 190 14 9 243
2023099S11128 2023 14 SI WA ILSA 2023-04-11 21:00:00 NR -15.7374 120.162 PROVISIONAL 273 273 P_____________ SI182023 -15.7374 120.162 80 974 1 65 67 62 60 1005 190 14 6 270
2023099S11128 2023 14 SI WA ILSA 2023-04-12 00:00:00 NR -15.7000 119.900 PROVISIONAL 300 300 O_____________ tcvitals SI182023 -15.7000 119.900 80 974 1 65 70 65 60 1005 190 14 5 261
2023099S11128 2023 14 SI WA ILSA 2023-04-12 03:00:00 NR -15.8125 119.655 PROVISIONAL 313 313 P_____________ SI182023 -15.8125 119.655 84 969 2 72 92 82 72 1005 190 14 5 232
2023099S11128 2023 14 SI WA ILSA 2023-04-12 06:00:00 NR -16.0000 119.500 PROVISIONAL 322 312 O_____________ tcvitals SI182023 -16.0000 119.500 89 965 2 80 115 100 85 1005 190 14 4 201
2023099S11128 2023 14 SI WA ILSA 2023-04-12 09:00:00 NR -16.2275 119.485 PROVISIONAL 312 300 P_____________ SI182023 -16.2275 119.485 94 960 2 90 107 95 85 1005 185 14 5 178
2023099S11128 2023 14 SI WA ILSA 2023-04-12 12:00:00 NR -16.5000 119.500 PROVISIONAL 300 294 O_____________ tcvitals SI182023 -16.5000 119.500 99 956 3 100 100 90 85 1006 180 14 6 187
2023099S11128 2023 14 SI WA ILSA 2023-04-12 15:00:00 NR -16.7925 119.415 PROVISIONAL 300 294 P_____________ SI182023 -16.7925 119.415 102 954 3 102 97 90 87 1005 215 12 6 198
2023099S11128 2023 14 SI WA ILSA 2023-04-12 18:00:00 NR -17.1000 119.300 PROVISIONAL 302 296 O_____________ tcvitals SI182023 -17.1000 119.300 105 953 3 105 95 90 90 1005 250 10 6 198
2023099S11128 2023 14 SI WA ILSA 2023-04-12 21:00:00 NR -17.3700 119.215 PROVISIONAL 296 267 P_____________ SI182023 -17.3700 119.215 110 948 3 105 97 92 97 1005 237 10 6 198
2023099S11128 2023 14 SI WA ILSA 2023-04-13 00:00:00 NR -17.7000 119.100 PROVISIONAL 267 213 O_____________ tcvitals SI182023 -17.7000 119.100 115 944 4 105 100 95 105 1005 225 10 9 203
2023099S11128 2023 14 SI WA ILSA 2023-04-13 03:00:00 NR -18.1851 118.856 PROVISIONAL 213 162 P_____________ SI182023 -18.1851 118.856 121 936 4 112 102 92 105 1005 207 7 11 201
2023099S11128 2023 14 SI WA ILSA 2023-04-13 06:00:00 NR -18.7000 118.700 PROVISIONAL 162 116 O_____________ tcvitals SI182023 -18.7000 118.700 128 929 4 120 105 90 105 1005 190 5 9 183
2023099S11128 2023 14 SI WA ILSA 2023-04-13 09:00:00 NR -19.0999 118.810 PROVISIONAL 116 67 P_____________ SI182023 -19.0999 118.810 128 929 4 120 105 90 105 1005 190 5 9 155
2023099S11128 2023 14 SI WA ILSA 2023-04-13 12:00:00 NR -19.5000 119.100 PROVISIONAL 67 22 O_____________ tcvitals SI182023 -19.5000 119.100 128 929 4 120 105 90 105 1005 190 5 11 144
2023099S11128 2023 14 SI WA ILSA 2023-04-13 15:00:00 NR -19.9752 119.479 PROVISIONAL 11 0 P_____________ SI182023 -19.9752 119.479 121 936 4 102 100 80 87 1004 165 5 13 143
2023099S11128 2023 14 SI WA ILSA 2023-04-13 18:00:00 NR -20.5000 119.900 PROVISIONAL 0 O_____________ tcvitals SI182023 -20.5000 119.900 115 944 4 85 95 70 70 1004 140 5 13 143

About IBTrACS Database

This database is a web-friendly format of International Best Track Archive for Climate Stewardship (IBTrACS), a global best track data archive curated by NOAA dating back to 1842.

Data provided by NOAA IBTrACS (International Best Track Archive for Climate Stewardship), accessed on 2023-06-05